sensor_id;sensor_type;location;lat;lon;timestamp;temperature;humidity
13721;DHT22;6932;51.438;5.470;2023-03-04T00:02:03;13.30;67.00
13721;DHT22;6932;51.438;5.470;2023-03-04T00:04:28;13.30;67.00
13721;DHT22;6932;51.438;5.470;2023-03-04T00:06:54;13.30;67.00
13721;DHT22;6932;51.438;5.470;2023-03-04T00:09:20;13.30;67.00
13721;DHT22;6932;51.438;5.470;2023-03-04T00:11:46;13.30;67.10
13721;DHT22;6932;51.438;5.470;2023-03-04T00:14:11;13.30;67.10
13721;DHT22;6932;51.438;5.470;2023-03-04T00:16:37;13.30;67.00
13721;DHT22;6932;51.438;5.470;2023-03-04T00:19:04;13.30;67.00
13721;DHT22;6932;51.438;5.470;2023-03-04T00:21:30;13.30;67.00
13721;DHT22;6932;51.438;5.470;2023-03-04T00:23:55;13.30;67.00
13721;DHT22;6932;51.438;5.470;2023-03-04T00:26:21;13.30;67.10
13721;DHT22;6932;51.438;5.470;2023-03-04T00:28:47;13.30;67.10
13721;DHT22;6932;51.438;5.470;2023-03-04T00:31:13;13.30;67.10
13721;DHT22;6932;51.438;5.470;2023-03-04T00:33:38;13.30;67.20
13721;DHT22;6932;51.438;5.470;2023-03-04T00:36:05;13.30;67.20
13721;DHT22;6932;51.438;5.470;2023-03-04T00:38:31;13.30;67.20
13721;DHT22;6932;51.438;5.470;2023-03-04T00:40:57;13.30;67.20
13721;DHT22;6932;51.438;5.470;2023-03-04T00:43:23;13.30;67.30
13721;DHT22;6932;51.438;5.470;2023-03-04T00:45:48;13.30;67.30
13721;DHT22;6932;51.438;5.470;2023-03-04T00:48:14;13.30;67.30
13721;DHT22;6932;51.438;5.470;2023-03-04T00:50:41;13.30;67.30
13721;DHT22;6932;51.438;5.470;2023-03-04T00:53:09;13.30;67.30
13721;DHT22;6932;51.438;5.470;2023-03-04T00:55:35;13.30;67.40
13721;DHT22;6932;51.438;5.470;2023-03-04T00:58:01;13.30;67.40
13721;DHT22;6932;51.438;5.470;2023-03-04T01:00:27;13.30;67.50
13721;DHT22;6932;51.438;5.470;2023-03-04T01:02:53;13.30;67.50
13721;DHT22;6932;51.438;5.470;2023-03-04T01:05:19;13.30;67.60
13721;DHT22;6932;51.438;5.470;2023-03-04T01:07:45;13.30;67.70
13721;DHT22;6932;51.438;5.470;2023-03-04T01:10:12;13.30;67.70
13721;DHT22;6932;51.438;5.470;2023-03-04T01:12:39;13.30;67.70
13721;DHT22;6932;51.438;5.470;2023-03-04T01:15:07;13.20;67.60
13721;DHT22;6932;51.438;5.470;2023-03-04T01:17:34;13.30;67.70
13721;DHT22;6932;51.438;5.470;2023-03-04T01:20:00;13.30;67.70
13721;DHT22;6932;51.438;5.470;2023-03-04T01:22:26;13.30;67.80
13721;DHT22;6932;51.438;5.470;2023-03-04T01:24:51;13.20;67.70
13721;DHT22;6932;51.438;5.470;2023-03-04T01:27:17;13.20;67.80
13721;DHT22;6932;51.438;5.470;2023-03-04T01:29:43;13.30;68.50
13721;DHT22;6932;51.438;5.470;2023-03-04T01:32:09;13.20;67.80
13721;DHT22;6932;51.438;5.470;2023-03-04T01:34:34;13.30;67.80
13721;DHT22;6932;51.438;5.470;2023-03-04T01:37:00;13.30;67.80
13721;DHT22;6932;51.438;5.470;2023-03-04T01:39:26;13.30;67.90
13721;DHT22;6932;51.438;5.470;2023-03-04T01:41:52;13.30;68.00
13721;DHT22;6932;51.438;5.470;2023-03-04T01:44:18;13.30;68.00
13721;DHT22;6932;51.438;5.470;2023-03-04T01:46:49;13.30;68.10
13721;DHT22;6932;51.438;5.470;2023-03-04T01:49:18;13.30;68.10
13721;DHT22;6932;51.438;5.470;2023-03-04T01:51:47;13.30;68.10
13721;DHT22;6932;51.438;5.470;2023-03-04T01:54:18;13.30;68.20
13721;DHT22;6932;51.438;5.470;2023-03-04T01:56:47;13.30;68.20
13721;DHT22;6932;51.438;5.470;2023-03-04T01:59:23;13.30;68.30
13721;DHT22;6932;51.438;5.470;2023-03-04T02:01:55;13.30;68.30
13721;DHT22;6932;51.438;5.470;2023-03-04T02:04:27;13.30;68.20
13721;DHT22;6932;51.438;5.470;2023-03-04T02:06:56;13.20;68.10
13721;DHT22;6932;51.438;5.470;2023-03-04T02:09:24;13.20;68.10
13721;DHT22;6932;51.438;5.470;2023-03-04T02:11:51;13.20;68.10
13721;DHT22;6932;51.438;5.470;2023-03-04T02:14:18;13.20;68.10
13721;DHT22;6932;51.438;5.470;2023-03-04T02:16:45;13.20;68.20
13721;DHT22;6932;51.438;5.470;2023-03-04T02:19:18;13.20;68.20
13721;DHT22;6932;51.438;5.470;2023-03-04T02:22:01;13.20;68.20
13721;DHT22;6932;51.438;5.470;2023-03-04T02:24:49;13.20;68.30
13721;DHT22;6932;51.438;5.470;2023-03-04T02:27:21;13.20;68.30
13721;DHT22;6932;51.438;5.470;2023-03-04T02:29:47;13.20;68.30
13721;DHT22;6932;51.438;5.470;2023-03-04T02:32:13;13.20;68.40
13721;DHT22;6932;51.438;5.470;2023-03-04T02:34:46;13.20;68.40
13721;DHT22;6932;51.438;5.470;2023-03-04T02:37:14;13.20;68.50
13721;DHT22;6932;51.438;5.470;2023-03-04T02:39:45;13.20;68.50
13721;DHT22;6932;51.438;5.470;2023-03-04T02:42:12;13.20;68.50
13721;DHT22;6932;51.438;5.470;2023-03-04T02:44:41;13.20;68.50
13721;DHT22;6932;51.438;5.470;2023-03-04T02:47:12;13.20;68.50
13721;DHT22;6932;51.438;5.470;2023-03-04T02:49:40;13.20;68.50
13721;DHT22;6932;51.438;5.470;2023-03-04T02:54:38;13.20;68.60
13721;DHT22;6932;51.438;5.470;2023-03-04T02:57:07;13.20;68.60
13721;DHT22;6932;51.438;5.470;2023-03-04T02:59:35;13.20;68.80
13721;DHT22;6932;51.438;5.470;2023-03-04T03:02:03;13.20;68.80
13721;DHT22;6932;51.438;5.470;2023-03-04T03:04:29;13.20;68.80
13721;DHT22;6932;51.438;5.470;2023-03-04T03:06:55;13.20;68.80
13721;DHT22;6932;51.438;5.470;2023-03-04T03:09:21;13.20;68.90
13721;DHT22;6932;51.438;5.470;2023-03-04T03:11:47;13.20;69.00
13721;DHT22;6932;51.438;5.470;2023-03-04T03:14:13;13.20;69.00
13721;DHT22;6932;51.438;5.470;2023-03-04T03:16:39;13.20;69.00
13721;DHT22;6932;51.438;5.470;2023-03-04T03:19:05;13.20;69.00
13721;DHT22;6932;51.438;5.470;2023-03-04T03:21:31;13.20;69.00
13721;DHT22;6932;51.438;5.470;2023-03-04T03:23:57;13.20;69.00
13721;DHT22;6932;51.438;5.470;2023-03-04T03:26:22;13.20;69.00
13721;DHT22;6932;51.438;5.470;2023-03-04T03:28:48;13.20;69.00
13721;DHT22;6932;51.438;5.470;2023-03-04T03:31:14;13.10;69.00
13721;DHT22;6932;51.438;5.470;2023-03-04T03:33:40;13.20;69.10
13721;DHT22;6932;51.438;5.470;2023-03-04T03:36:07;13.20;69.10
13721;DHT22;6932;51.438;5.470;2023-03-04T03:38:33;13.10;69.10
13721;DHT22;6932;51.438;5.470;2023-03-04T03:41:01;13.10;69.10
13721;DHT22;6932;51.438;5.470;2023-03-04T03:43:26;13.20;69.80
13721;DHT22;6932;51.438;5.470;2023-03-04T03:45:52;13.20;69.10
13721;DHT22;6932;51.438;5.470;2023-03-04T03:48:18;13.10;69.10
13721;DHT22;6932;51.438;5.470;2023-03-04T03:50:44;13.10;69.10
13721;DHT22;6932;51.438;5.470;2023-03-04T03:53:10;13.10;69.10
13721;DHT22;6932;51.438;5.470;2023-03-04T03:55:36;13.10;69.20
13721;DHT22;6932;51.438;5.470;2023-03-04T03:58:03;13.10;69.20
13721;DHT22;6932;51.438;5.470;2023-03-04T04:00:29;13.10;69.30
13721;DHT22;6932;51.438;5.470;2023-03-04T04:02:57;13.10;69.40
13721;DHT22;6932;51.438;5.470;2023-03-04T04:05:25;13.10;69.40
13721;DHT22;6932;51.438;5.470;2023-03-04T04:07:51;13.10;69.40
13721;DHT22;6932;51.438;5.470;2023-03-04T04:10:17;13.10;69.50
13721;DHT22;6932;51.438;5.470;2023-03-04T04:12:43;13.10;69.50
13721;DHT22;6932;51.438;5.470;2023-03-04T04:15:10;13.10;69.50
13721;DHT22;6932;51.438;5.470;2023-03-04T04:17:37;13.10;69.30
13721;DHT22;6932;51.438;5.470;2023-03-04T04:20:05;13.10;69.30
13721;DHT22;6932;51.438;5.470;2023-03-04T04:22:32;13.10;69.30
13721;DHT22;6932;51.438;5.470;2023-03-04T04:24:58;13.10;69.30
13721;DHT22;6932;51.438;5.470;2023-03-04T04:27:24;13.10;69.30
13721;DHT22;6932;51.438;5.470;2023-03-04T04:29:50;13.10;69.30
13721;DHT22;6932;51.438;5.470;2023-03-04T04:32:15;13.10;69.30
13721;DHT22;6932;51.438;5.470;2023-03-04T04:34:41;13.10;69.30
13721;DHT22;6932;51.438;5.470;2023-03-04T04:37:07;13.10;69.40
13721;DHT22;6932;51.438;5.470;2023-03-04T04:39:33;13.10;69.40
13721;DHT22;6932;51.438;5.470;2023-03-04T04:41:59;13.10;69.40
13721;DHT22;6932;51.438;5.470;2023-03-04T04:44:24;13.10;69.50
13721;DHT22;6932;51.438;5.470;2023-03-04T04:46:50;13.10;69.50
13721;DHT22;6932;51.438;5.470;2023-03-04T04:49:16;13.10;69.50
13721;DHT22;6932;51.438;5.470;2023-03-04T04:51:42;13.10;69.40
13721;DHT22;6932;51.438;5.470;2023-03-04T04:54:09;13.10;69.30
13721;DHT22;6932;51.438;5.470;2023-03-04T04:56:35;13.10;69.20
13721;DHT22;6932;51.438;5.470;2023-03-04T04:59:03;13.10;69.20
13721;DHT22;6932;51.438;5.470;2023-03-04T05:01:30;13.10;69.10
13721;DHT22;6932;51.438;5.470;2023-03-04T05:03:56;13.10;69.10
13721;DHT22;6932;51.438;5.470;2023-03-04T05:06:23;13.10;69.00
13721;DHT22;6932;51.438;5.470;2023-03-04T05:08:50;13.10;69.00
13721;DHT22;6932;51.438;5.470;2023-03-04T05:11:17;13.10;69.00
13721;DHT22;6932;51.438;5.470;2023-03-04T05:13:44;13.10;69.00
13721;DHT22;6932;51.438;5.470;2023-03-04T05:16:10;13.10;69.00
13721;DHT22;6932;51.438;5.470;2023-03-04T05:18:37;13.10;69.00
13721;DHT22;6932;51.438;5.470;2023-03-04T05:21:04;13.00;69.00
13721;DHT22;6932;51.438;5.470;2023-03-04T05:23:33;13.10;69.00
13721;DHT22;6932;51.438;5.470;2023-03-04T05:26:02;13.10;69.00
13721;DHT22;6932;51.438;5.470;2023-03-04T05:28:29;13.10;68.90
13721;DHT22;6932;51.438;5.470;2023-03-04T05:30:55;13.10;69.60
13721;DHT22;6932;51.438;5.470;2023-03-04T05:33:21;13.10;68.80
13721;DHT22;6932;51.438;5.470;2023-03-04T05:35:48;13.10;68.80
13721;DHT22;6932;51.438;5.470;2023-03-04T05:38:16;13.10;68.90
13721;DHT22;6932;51.438;5.470;2023-03-04T05:40:43;13.10;68.90
13721;DHT22;6932;51.438;5.470;2023-03-04T05:43:10;13.10;68.90
13721;DHT22;6932;51.438;5.470;2023-03-04T05:45:37;13.10;69.00
13721;DHT22;6932;51.438;5.470;2023-03-04T05:48:04;13.10;69.00
13721;DHT22;6932;51.438;5.470;2023-03-04T05:50:30;13.10;69.00
13721;DHT22;6932;51.438;5.470;2023-03-04T05:52:57;13.10;68.80
13721;DHT22;6932;51.438;5.470;2023-03-04T05:55:23;13.10;68.90
13721;DHT22;6932;51.438;5.470;2023-03-04T05:57:49;13.10;68.90
13721;DHT22;6932;51.438;5.470;2023-03-04T06:00:15;13.10;68.90
13721;DHT22;6932;51.438;5.470;2023-03-04T06:02:42;13.10;68.90
13721;DHT22;6932;51.438;5.470;2023-03-04T06:05:09;13.10;68.90
13721;DHT22;6932;51.438;5.470;2023-03-04T06:07:37;13.10;68.90
13721;DHT22;6932;51.438;5.470;2023-03-04T06:10:04;13.10;68.90
13721;DHT22;6932;51.438;5.470;2023-03-04T06:12:30;13.10;68.90
13721;DHT22;6932;51.438;5.470;2023-03-04T06:14:56;13.10;68.80
13721;DHT22;6932;51.438;5.470;2023-03-04T06:17:22;13.10;68.90
13721;DHT22;6932;51.438;5.470;2023-03-04T06:19:48;13.10;69.00
13721;DHT22;6932;51.438;5.470;2023-03-04T06:22:13;13.10;69.00
13721;DHT22;6932;51.438;5.470;2023-03-04T06:24:39;13.10;69.10
13721;DHT22;6932;51.438;5.470;2023-03-04T06:27:05;13.10;69.10
13721;DHT22;6932;51.438;5.470;2023-03-04T06:29:31;13.00;69.10
13721;DHT22;6932;51.438;5.470;2023-03-04T06:31:57;13.10;69.30
13721;DHT22;6932;51.438;5.470;2023-03-04T06:34:23;13.00;70.00
13721;DHT22;6932;51.438;5.470;2023-03-04T06:36:49;13.00;69.40
13721;DHT22;6932;51.438;5.470;2023-03-04T06:39:15;13.00;69.60
13721;DHT22;6932;51.438;5.470;2023-03-04T06:41:41;13.00;69.70
13721;DHT22;6932;51.438;5.470;2023-03-04T06:44:07;13.00;69.80
13721;DHT22;6932;51.438;5.470;2023-03-04T06:46:33;13.00;69.90
13721;DHT22;6932;51.438;5.470;2023-03-04T06:49:00;13.00;70.00
13721;DHT22;6932;51.438;5.470;2023-03-04T06:51:26;13.00;70.10
13721;DHT22;6932;51.438;5.470;2023-03-04T06:53:52;13.00;70.20
13721;DHT22;6932;51.438;5.470;2023-03-04T06:56:18;13.00;70.20
13721;DHT22;6932;51.438;5.470;2023-03-04T06:58:44;13.00;70.30
13721;DHT22;6932;51.438;5.470;2023-03-04T07:01:12;13.00;70.30
13721;DHT22;6932;51.438;5.470;2023-03-04T07:03:40;13.00;70.40
13721;DHT22;6932;51.438;5.470;2023-03-04T07:06:06;13.00;70.50
13721;DHT22;6932;51.438;5.470;2023-03-04T07:08:33;13.00;70.60
13721;DHT22;6932;51.438;5.470;2023-03-04T07:10:59;13.00;70.70
13721;DHT22;6932;51.438;5.470;2023-03-04T07:13:25;13.00;70.90
13721;DHT22;6932;51.438;5.470;2023-03-04T07:15:51;13.00;71.10
13721;DHT22;6932;51.438;5.470;2023-03-04T07:18:17;13.00;71.20
13721;DHT22;6932;51.438;5.470;2023-03-04T07:20:43;13.00;71.40
13721;DHT22;6932;51.438;5.470;2023-03-04T07:23:09;13.00;71.50
13721;DHT22;6932;51.438;5.470;2023-03-04T07:25:34;13.00;71.70
13721;DHT22;6932;51.438;5.470;2023-03-04T07:28:00;13.00;71.80
13721;DHT22;6932;51.438;5.470;2023-03-04T07:30:26;13.00;71.90
13721;DHT22;6932;51.438;5.470;2023-03-04T07:32:52;13.00;72.00
13721;DHT22;6932;51.438;5.470;2023-03-04T07:35:18;12.90;72.10
13721;DHT22;6932;51.438;5.470;2023-03-04T07:37:43;12.90;72.30
13721;DHT22;6932;51.438;5.470;2023-03-04T07:40:10;12.90;72.40
13721;DHT22;6932;51.438;5.470;2023-03-04T07:42:36;12.90;72.50
13721;DHT22;6932;51.438;5.470;2023-03-04T07:45:03;12.90;72.50
13721;DHT22;6932;51.438;5.470;2023-03-04T07:47:29;12.90;72.60
13721;DHT22;6932;51.438;5.470;2023-03-04T07:49:55;12.90;72.60
13721;DHT22;6932;51.438;5.470;2023-03-04T07:52:21;12.90;72.70
13721;DHT22;6932;51.438;5.470;2023-03-04T07:54:47;12.90;72.80
13721;DHT22;6932;51.438;5.470;2023-03-04T07:57:13;12.90;72.80
13721;DHT22;6932;51.438;5.470;2023-03-04T07:59:38;13.00;72.90
13721;DHT22;6932;51.438;5.470;2023-03-04T08:02:04;12.90;72.90
13721;DHT22;6932;51.438;5.470;2023-03-04T08:04:30;12.90;72.90
13721;DHT22;6932;51.438;5.470;2023-03-04T08:06:55;13.00;73.00
13721;DHT22;6932;51.438;5.470;2023-03-04T08:09:21;13.00;73.10
13721;DHT22;6932;51.438;5.470;2023-03-04T08:11:47;13.00;73.00
13721;DHT22;6932;51.438;5.470;2023-03-04T08:14:13;13.00;73.00
13721;DHT22;6932;51.438;5.470;2023-03-04T08:16:39;13.00;73.00
13721;DHT22;6932;51.438;5.470;2023-03-04T08:19:06;13.00;73.10
13721;DHT22;6932;51.438;5.470;2023-03-04T08:21:33;13.00;73.10
13721;DHT22;6932;51.438;5.470;2023-03-04T08:24:00;13.00;73.00
13721;DHT22;6932;51.438;5.470;2023-03-04T08:26:35;13.00;73.10
13721;DHT22;6932;51.438;5.470;2023-03-04T08:29:05;13.00;73.20
13721;DHT22;6932;51.438;5.470;2023-03-04T08:31:31;13.00;73.10
13721;DHT22;6932;51.438;5.470;2023-03-04T08:33:58;13.00;73.30
13721;DHT22;6932;51.438;5.470;2023-03-04T08:36:24;13.00;73.40
13721;DHT22;6932;51.438;5.470;2023-03-04T08:38:50;13.00;73.60
13721;DHT22;6932;51.438;5.470;2023-03-04T08:41:16;13.10;73.80
13721;DHT22;6932;51.438;5.470;2023-03-04T08:43:42;13.10;73.80
13721;DHT22;6932;51.438;5.470;2023-03-04T08:46:08;13.10;73.80
13721;DHT22;6932;51.438;5.470;2023-03-04T08:48:35;13.20;73.80
13721;DHT22;6932;51.438;5.470;2023-03-04T08:51:10;13.20;73.70
13721;DHT22;6932;51.438;5.470;2023-03-04T08:53:38;13.20;73.70
13721;DHT22;6932;51.438;5.470;2023-03-04T08:56:06;13.20;73.60
13721;DHT22;6932;51.438;5.470;2023-03-04T08:58:32;13.30;73.60
13721;DHT22;6932;51.438;5.470;2023-03-04T09:00:59;13.30;73.80
13721;DHT22;6932;51.438;5.470;2023-03-04T09:03:26;13.30;73.90
13721;DHT22;6932;51.438;5.470;2023-03-04T09:05:52;13.40;73.90
13721;DHT22;6932;51.438;5.470;2023-03-04T09:08:18;13.50;73.80
13721;DHT22;6932;51.438;5.470;2023-03-04T09:10:46;13.40;73.80
13721;DHT22;6932;51.438;5.470;2023-03-04T09:13:12;13.50;73.70
13721;DHT22;6932;51.438;5.470;2023-03-04T09:15:46;13.60;73.60
13721;DHT22;6932;51.438;5.470;2023-03-04T09:18:14;13.70;73.50
13721;DHT22;6932;51.438;5.470;2023-03-04T09:20:45;13.70;73.40
13721;DHT22;6932;51.438;5.470;2023-03-04T09:23:12;13.80;73.40
13721;DHT22;6932;51.438;5.470;2023-03-04T09:25:40;13.80;73.40
13721;DHT22;6932;51.438;5.470;2023-03-04T09:28:07;13.80;73.10
13721;DHT22;6932;51.438;5.470;2023-03-04T09:30:34;13.90;73.10
13721;DHT22;6932;51.438;5.470;2023-03-04T09:33:00;14.00;73.00
13721;DHT22;6932;51.438;5.470;2023-03-04T09:35:26;14.00;72.80
13721;DHT22;6932;51.438;5.470;2023-03-04T09:37:54;14.10;72.70
13721;DHT22;6932;51.438;5.470;2023-03-04T09:40:23;14.10;72.50
13721;DHT22;6932;51.438;5.470;2023-03-04T09:43:06;14.20;72.30
13721;DHT22;6932;51.438;5.470;2023-03-04T09:45:43;14.20;72.20
13721;DHT22;6932;51.438;5.470;2023-03-04T09:48:17;14.30;72.20
13721;DHT22;6932;51.438;5.470;2023-03-04T09:54:21;14.40;71.90
13721;DHT22;6932;51.438;5.470;2023-03-04T09:56:25;14.40;72.00
13721;DHT22;6932;51.438;5.470;2023-03-04T10:01:52;14.50;72.00
13721;DHT22;6932;51.438;5.470;2023-03-04T10:07:11;14.60;71.50
13721;DHT22;6932;51.438;5.470;2023-03-04T10:09:58;14.70;71.50
13721;DHT22;6932;51.438;5.470;2023-03-04T10:12:29;14.70;71.50
13721;DHT22;6932;51.438;5.470;2023-03-04T10:18:23;14.80;71.50
13721;DHT22;6932;51.438;5.470;2023-03-04T10:20:59;14.80;71.00
13721;DHT22;6932;51.438;5.470;2023-03-04T10:23:30;14.90;71.00
13721;DHT22;6932;51.438;5.470;2023-03-04T10:25:58;14.80;70.90
13721;DHT22;6932;51.438;5.470;2023-03-04T10:28:33;14.80;70.90
13721;DHT22;6932;51.438;5.470;2023-03-04T10:31:27;14.80;70.90
13721;DHT22;6932;51.438;5.470;2023-03-04T10:33:56;14.80;71.10
13721;DHT22;6932;51.438;5.470;2023-03-04T10:38:57;14.80;71.10
13721;DHT22;6932;51.438;5.470;2023-03-04T10:41:34;14.70;71.10
13721;DHT22;6932;51.438;5.470;2023-03-04T10:44:01;14.70;71.20
13721;DHT22;6932;51.438;5.470;2023-03-04T10:46:26;14.70;71.40
13721;DHT22;6932;51.438;5.470;2023-03-04T10:48:53;14.70;71.40
13721;DHT22;6932;51.438;5.470;2023-03-04T10:51:27;14.70;71.40
13721;DHT22;6932;51.438;5.470;2023-03-04T10:54:05;14.80;71.40
13721;DHT22;6932;51.438;5.470;2023-03-04T11:04:49;14.90;70.60
13721;DHT22;6932;51.438;5.470;2023-03-04T11:07:19;15.00;71.10
13721;DHT22;6932;51.438;5.470;2023-03-04T11:09:46;15.00;70.30
13721;DHT22;6932;51.438;5.470;2023-03-04T11:12:14;15.00;70.20
13721;DHT22;6932;51.438;5.470;2023-03-04T11:14:46;15.00;70.10
13721;DHT22;6932;51.438;5.470;2023-03-04T11:19:46;15.00;70.20
13721;DHT22;6932;51.438;5.470;2023-03-04T11:22:19;15.00;70.30
13721;DHT22;6932;51.438;5.470;2023-03-04T11:25:04;15.00;70.40
13721;DHT22;6932;51.438;5.470;2023-03-04T11:27:37;14.90;70.50
13721;DHT22;6932;51.438;5.470;2023-03-04T11:30:40;14.90;70.50
13721;DHT22;6932;51.438;5.470;2023-03-04T11:33:43;14.90;70.60
13721;DHT22;6932;51.438;5.470;2023-03-04T11:38:49;14.90;70.80
13721;DHT22;6932;51.438;5.470;2023-03-04T11:41:38;14.80;70.90
13721;DHT22;6932;51.438;5.470;2023-03-04T11:44:12;14.80;71.00
13721;DHT22;6932;51.438;5.470;2023-03-04T11:52:47;14.80;71.30
13721;DHT22;6932;51.438;5.470;2023-03-04T11:55:49;14.80;71.40
13721;DHT22;6932;51.438;5.470;2023-03-04T11:58:34;14.80;71.50
13721;DHT22;6932;51.438;5.470;2023-03-04T12:01:09;14.80;71.70
13721;DHT22;6932;51.438;5.470;2023-03-04T12:04:15;14.80;72.00
13721;DHT22;6932;51.438;5.470;2023-03-04T12:06:55;14.70;72.40
13721;DHT22;6932;51.438;5.470;2023-03-04T12:15:57;14.70;73.20
13721;DHT22;6932;51.438;5.470;2023-03-04T12:21:45;14.70;73.40
13721;DHT22;6932;51.438;5.470;2023-03-04T12:27:42;14.80;73.80
13721;DHT22;6932;51.438;5.470;2023-03-04T12:30:16;14.80;74.00
13721;DHT22;6932;51.438;5.470;2023-03-04T12:35:41;14.80;74.20
13721;DHT22;6932;51.438;5.470;2023-03-04T12:38:37;14.80;74.20
13721;DHT22;6932;51.438;5.470;2023-03-04T12:44:15;14.90;74.40
13721;DHT22;6932;51.438;5.470;2023-03-04T12:47:19;14.90;74.50
13721;DHT22;6932;51.438;5.470;2023-03-04T12:50:30;14.90;74.50
13721;DHT22;6932;51.438;5.470;2023-03-04T12:56:57;15.00;74.30
13721;DHT22;6932;51.438;5.470;2023-03-04T12:59:25;15.00;74.10
13721;DHT22;6932;51.438;5.470;2023-03-04T13:08:10;15.10;73.70
13721;DHT22;6932;51.438;5.470;2023-03-04T13:14:06;15.10;73.60
13721;DHT22;6932;51.438;5.470;2023-03-04T13:16:40;15.20;73.50
13721;DHT22;6932;51.438;5.470;2023-03-04T13:19:43;15.20;73.50
13721;DHT22;6932;51.438;5.470;2023-03-04T13:28:12;15.20;73.40
13721;DHT22;6932;51.438;5.470;2023-03-04T13:35:46;15.20;73.70
13721;DHT22;6932;51.438;5.470;2023-03-04T13:41:11;15.20;73.80
13721;DHT22;6932;51.438;5.470;2023-03-04T13:44:02;15.20;74.40
13721;DHT22;6932;51.438;5.470;2023-03-04T13:47:15;15.10;74.90
13721;DHT22;6932;51.438;5.470;2023-03-04T13:49:46;15.20;75.60
13721;DHT22;6932;51.438;5.470;2023-03-04T13:52:40;15.20;76.00
13721;DHT22;6932;51.438;5.470;2023-03-04T13:55:33;15.10;76.30
13721;DHT22;6932;51.438;5.470;2023-03-04T13:58:22;15.10;76.60
13721;DHT22;6932;51.438;5.470;2023-03-04T14:00:52;15.00;76.90
13721;DHT22;6932;51.438;5.470;2023-03-04T14:03:28;15.00;77.70
13721;DHT22;6932;51.438;5.470;2023-03-04T14:06:09;15.00;77.50
13721;DHT22;6932;51.438;5.470;2023-03-04T14:08:35;14.90;77.70
13721;DHT22;6932;51.438;5.470;2023-03-04T14:11:01;14.90;77.70
13721;DHT22;6932;51.438;5.470;2023-03-04T14:13:27;14.90;78.00
13721;DHT22;6932;51.438;5.470;2023-03-04T14:15:57;14.90;78.20
13721;DHT22;6932;51.438;5.470;2023-03-04T14:18:24;14.80;78.30
13721;DHT22;6932;51.438;5.470;2023-03-04T14:20:51;14.80;78.50
13721;DHT22;6932;51.438;5.470;2023-03-04T14:23:30;14.80;78.70
13721;DHT22;6932;51.438;5.470;2023-03-04T14:26:12;14.80;78.90
13721;DHT22;6932;51.438;5.470;2023-03-04T14:28:48;14.80;79.00
13721;DHT22;6932;51.438;5.470;2023-03-04T14:31:19;14.80;79.20
13721;DHT22;6932;51.438;5.470;2023-03-04T14:33:49;14.80;79.30
13721;DHT22;6932;51.438;5.470;2023-03-04T14:36:21;14.70;79.30
13721;DHT22;6932;51.438;5.470;2023-03-04T14:39:12;14.70;79.40
13721;DHT22;6932;51.438;5.470;2023-03-04T14:41:41;14.70;79.50
13721;DHT22;6932;51.438;5.470;2023-03-04T14:44:34;14.70;79.60
13721;DHT22;6932;51.438;5.470;2023-03-04T14:47:29;14.70;79.80
13721;DHT22;6932;51.438;5.470;2023-03-04T14:50:09;14.70;80.00
13721;DHT22;6932;51.438;5.470;2023-03-04T14:52:41;14.70;80.00
13721;DHT22;6932;51.438;5.470;2023-03-04T14:57:49;14.70;80.00
13721;DHT22;6932;51.438;5.470;2023-03-04T15:00:29;14.70;79.90
13721;DHT22;6932;51.438;5.470;2023-03-04T15:03:02;14.70;79.70
13721;DHT22;6932;51.438;5.470;2023-03-04T15:05:35;14.70;79.50
13721;DHT22;6932;51.438;5.470;2023-03-04T15:08:38;14.80;79.20
13721;DHT22;6932;51.438;5.470;2023-03-04T15:11:07;14.70;79.00
13721;DHT22;6932;51.438;5.470;2023-03-04T15:13:45;14.70;78.40
13721;DHT22;6932;51.438;5.470;2023-03-04T15:16:15;14.70;78.20
13721;DHT22;6932;51.438;5.470;2023-03-04T15:19:04;14.70;78.20
13721;DHT22;6932;51.438;5.470;2023-03-04T15:21:47;14.70;78.10
13721;DHT22;6932;51.438;5.470;2023-03-04T15:24:13;14.70;77.60
13721;DHT22;6932;51.438;5.470;2023-03-04T15:26:41;14.70;77.50
13721;DHT22;6932;51.438;5.470;2023-03-04T15:29:19;14.70;77.40
13721;DHT22;6932;51.438;5.470;2023-03-04T15:31:47;14.70;77.30
13721;DHT22;6932;51.438;5.470;2023-03-04T15:34:17;14.80;77.30
13721;DHT22;6932;51.438;5.470;2023-03-04T15:36:47;14.80;77.00
13721;DHT22;6932;51.438;5.470;2023-03-04T15:39:16;14.80;76.80
13721;DHT22;6932;51.438;5.470;2023-03-04T15:41:43;14.80;76.60
13721;DHT22;6932;51.438;5.470;2023-03-04T15:44:11;14.80;76.40
13721;DHT22;6932;51.438;5.470;2023-03-04T15:46:37;14.80;76.30
13721;DHT22;6932;51.438;5.470;2023-03-04T15:49:03;14.80;76.10
13721;DHT22;6932;51.438;5.470;2023-03-04T15:51:29;14.90;76.00
13721;DHT22;6932;51.438;5.470;2023-03-04T15:53:55;14.90;75.80
13721;DHT22;6932;51.438;5.470;2023-03-04T15:56:30;14.90;75.70
13721;DHT22;6932;51.438;5.470;2023-03-04T15:59:05;14.90;75.60
13721;DHT22;6932;51.438;5.470;2023-03-04T16:01:35;14.90;75.30
13721;DHT22;6932;51.438;5.470;2023-03-04T16:04:01;14.90;74.90
13721;DHT22;6932;51.438;5.470;2023-03-04T16:06:29;14.90;74.60
13721;DHT22;6932;51.438;5.470;2023-03-04T16:08:57;14.90;74.50
13721;DHT22;6932;51.438;5.470;2023-03-04T16:11:26;14.90;74.40
13721;DHT22;6932;51.438;5.470;2023-03-04T16:13:54;14.90;74.30
13721;DHT22;6932;51.438;5.470;2023-03-04T16:20:00;14.80;74.10
13721;DHT22;6932;51.438;5.470;2023-03-04T16:22:27;14.80;73.70
13721;DHT22;6932;51.438;5.470;2023-03-04T16:24:54;14.80;73.60
13721;DHT22;6932;51.438;5.470;2023-03-04T16:27:20;14.80;73.40
13721;DHT22;6932;51.438;5.470;2023-03-04T16:29:46;14.70;73.20
13721;DHT22;6932;51.438;5.470;2023-03-04T16:32:12;14.70;73.10
13721;DHT22;6932;51.438;5.470;2023-03-04T16:34:38;14.70;72.90
13721;DHT22;6932;51.438;5.470;2023-03-04T16:37:14;14.70;72.80
13721;DHT22;6932;51.438;5.470;2023-03-04T16:39:44;14.70;72.70
13721;DHT22;6932;51.438;5.470;2023-03-04T16:42:14;14.70;72.70
13721;DHT22;6932;51.438;5.470;2023-03-04T16:44:43;14.70;72.70
13721;DHT22;6932;51.438;5.470;2023-03-04T16:47:10;14.70;72.80
13721;DHT22;6932;51.438;5.470;2023-03-04T16:49:36;14.70;72.80
13721;DHT22;6932;51.438;5.470;2023-03-04T16:52:04;14.60;72.70
13721;DHT22;6932;51.438;5.470;2023-03-04T16:54:33;14.60;72.70
13721;DHT22;6932;51.438;5.470;2023-03-04T16:57:00;14.60;72.70
13721;DHT22;6932;51.438;5.470;2023-03-04T16:59:27;14.60;72.70
13721;DHT22;6932;51.438;5.470;2023-03-04T17:01:54;14.60;72.40
13721;DHT22;6932;51.438;5.470;2023-03-04T17:04:21;14.60;72.20
13721;DHT22;6932;51.438;5.470;2023-03-04T17:06:47;14.50;72.00
13721;DHT22;6932;51.438;5.470;2023-03-04T17:09:13;14.50;71.90
13721;DHT22;6932;51.438;5.470;2023-03-04T17:11:39;14.50;71.90
13721;DHT22;6932;51.438;5.470;2023-03-04T17:14:05;14.50;71.90
13721;DHT22;6932;51.438;5.470;2023-03-04T17:16:31;14.50;71.80
13721;DHT22;6932;51.438;5.470;2023-03-04T17:18:57;14.40;71.80
13721;DHT22;6932;51.438;5.470;2023-03-04T17:21:25;14.40;71.80
13721;DHT22;6932;51.438;5.470;2023-03-04T17:23:53;14.40;71.80
13721;DHT22;6932;51.438;5.470;2023-03-04T17:26:19;14.40;71.80
13721;DHT22;6932;51.438;5.470;2023-03-04T17:28:49;14.30;71.80
13721;DHT22;6932;51.438;5.470;2023-03-04T17:31:17;14.40;71.90